Martin, Oklahoma
Current Conditions -  °F | °C
As of 1:53 PM on Friday 24 Oct 2014 (Local Time) from KMKO Reporting Station
Clear Clear  
Wind Chill: 75°   Ceiling: Unl
Heat Index: 75°   Visibility: 10mi
Dew Point: 58°   Wind: 12mph
Humidity: 55%   Direction: 190°S
Pressure: 30.09"   Gusts: NA
Location:  35.6818°N, 95.3578°W
Report Text: KMKO 241853Z AUTO 19010KT 10SM CLR 24/14 A3009 RMK AO2 SLP184 T02390144
Loading
Personal Weather Stations






























Interactive Weather Map
Tropical Storm Tracking
New forecast layout! Learn more

10-Day Weather Forecast

Advertisements
Track Severe Weather on mobile